createdAt,value
2023-02-12T00:01:29.251Z,4.80
2023-02-12T00:03:57.671Z,4.80
2023-02-12T00:06:26.480Z,4.80
2023-02-12T00:08:56.177Z,4.80
2023-02-12T00:11:27.880Z,4.80
2023-02-12T00:13:57.179Z,4.80
2023-02-12T00:16:27.253Z,4.80
2023-02-12T00:18:57.542Z,4.80
2023-02-12T00:21:26.668Z,4.80
2023-02-12T00:23:55.346Z,4.80
2023-02-12T00:26:25.573Z,4.90
2023-02-12T00:28:55.142Z,4.80
2023-02-12T00:31:26.616Z,4.80
2023-02-12T00:33:58.292Z,4.80
2023-02-12T00:36:28.525Z,4.90
2023-02-12T00:38:57.537Z,4.90
2023-02-12T00:41:27.966Z,4.80
2023-02-12T00:43:56.063Z,4.80
2023-02-12T00:46:24.250Z,4.80
2023-02-12T00:48:52.406Z,4.80
2023-02-12T00:51:21.909Z,4.80
2023-02-12T00:53:49.862Z,4.90
2023-02-12T00:56:17.986Z,4.90
2023-02-12T00:58:50.687Z,4.90
2023-02-12T01:01:19.554Z,4.90
2023-02-12T01:03:47.558Z,4.90
2023-02-12T01:06:15.466Z,4.90
2023-02-12T01:08:43.469Z,4.90
2023-02-12T01:11:14.207Z,4.90
2023-02-12T01:13:42.243Z,4.90
2023-02-12T01:16:16.345Z,4.80
2023-02-12T01:18:45.028Z,4.80
2023-02-12T01:21:14.850Z,4.80
2023-02-12T01:23:43.652Z,4.80
2023-02-12T01:26:13.363Z,4.80
2023-02-12T01:28:42.520Z,4.80
2023-02-12T01:31:14.045Z,4.80
2023-02-12T01:33:43.090Z,4.90
2023-02-12T01:36:12.556Z,4.90
2023-02-12T01:38:41.293Z,4.80
2023-02-12T01:41:11.803Z,4.90
2023-02-12T01:43:40.425Z,4.90
2023-02-12T01:46:09.483Z,4.90
2023-02-12T01:48:42.328Z,4.90
2023-02-12T01:51:15.795Z,4.90
2023-02-12T01:53:47.700Z,4.90
2023-02-12T01:56:17.094Z,4.90
2023-02-12T01:58:48.186Z,4.90
2023-02-12T02:01:20.950Z,4.90
2023-02-12T02:03:55.908Z,4.90
2023-02-12T02:06:28.413Z,4.80
2023-02-12T02:08:57.604Z,4.80
2023-02-12T02:11:42.959Z,4.80
2023-02-12T02:14:39.969Z,4.80
2023-02-12T02:17:35.789Z,4.80
2023-02-12T02:20:37.754Z,4.70
2023-02-12T02:23:22.918Z,4.70
2023-02-12T02:26:10.635Z,4.70
2023-02-12T02:28:58.945Z,4.80
2023-02-12T02:31:38.042Z,4.80
2023-02-12T02:34:13.202Z,4.80
2023-02-12T02:36:59.535Z,4.80
2023-02-12T02:39:34.981Z,4.80
2023-02-12T02:42:12.188Z,4.80
2023-02-12T02:44:45.295Z,4.80
2023-02-12T02:47:16.154Z,4.80
2023-02-12T02:49:48.290Z,4.80
2023-02-12T02:52:21.748Z,4.80
2023-02-12T02:54:55.412Z,4.80
2023-02-12T02:57:30.794Z,4.80
2023-02-12T03:00:04.176Z,4.80
2023-02-12T03:02:37.910Z,4.80
2023-02-12T03:05:10.733Z,4.80
2023-02-12T03:07:43.067Z,4.80
2023-02-12T03:10:15.471Z,4.80
2023-02-12T03:12:48.689Z,4.80
2023-02-12T03:15:23.716Z,4.80
2023-02-12T03:17:53.268Z,4.80
2023-02-12T03:20:25.686Z,4.80
2023-02-12T03:22:57.866Z,4.80
2023-02-12T03:25:31.828Z,4.80
2023-02-12T03:28:07.122Z,4.80
2023-02-12T03:30:43.623Z,4.80
2023-02-12T03:33:21.367Z,4.80
2023-02-12T03:35:56.873Z,4.90
2023-02-12T03:38:34.949Z,4.80
2023-02-12T03:41:10.125Z,4.90
2023-02-12T03:43:50.199Z,4.90
2023-02-12T03:46:23.560Z,4.90
2023-02-12T03:49:00.530Z,4.90
2023-02-12T03:51:33.376Z,4.90
2023-02-12T03:54:02.584Z,4.90
2023-02-12T03:56:35.856Z,4.90
2023-02-12T03:59:05.168Z,4.90
2023-02-12T04:01:34.633Z,4.90
2023-02-12T04:04:07.374Z,4.90
2023-02-12T04:06:35.523Z,4.90
2023-02-12T04:09:06.032Z,5.00
2023-02-12T04:11:47.648Z,5.00
2023-02-12T04:14:23.747Z,5.00
2023-02-12T04:16:59.088Z,5.00
2023-02-12T04:19:37.470Z,5.00
2023-02-12T04:22:16.300Z,5.00
2023-02-12T04:24:51.092Z,5.00
2023-02-12T04:27:24.905Z,5.00
2023-02-12T04:29:59.485Z,5.10
2023-02-12T04:32:33.801Z,5.10
2023-02-12T04:35:09.793Z,5.10
2023-02-12T04:37:41.375Z,5.10
2023-02-12T04:40:13.302Z,5.10
2023-02-12T04:42:44.933Z,5.10
2023-02-12T04:45:14.858Z,5.10
2023-02-12T04:47:42.904Z,5.10
2023-02-12T04:50:13.025Z,5.10
2023-02-12T04:52:40.901Z,5.10
2023-02-12T04:55:09.278Z,5.10
2023-02-12T04:57:37.258Z,5.10
2023-02-12T05:00:05.852Z,5.10
2023-02-12T05:02:35.297Z,5.10
2023-02-12T05:05:03.514Z,5.10
2023-02-12T05:07:32.946Z,5.10
2023-02-12T05:10:00.933Z,5.10
2023-02-12T05:12:28.926Z,5.10
2023-02-12T05:14:56.920Z,5.10
2023-02-12T05:17:25.189Z,5.10
2023-02-12T05:19:53.400Z,5.10
2023-02-12T05:22:21.447Z,5.10
2023-02-12T05:24:50.803Z,5.10
2023-02-12T05:27:18.810Z,5.10
2023-02-12T05:29:46.718Z,5.10
2023-02-12T05:32:14.900Z,5.10
2023-02-12T05:34:42.785Z,5.10
2023-02-12T05:37:10.705Z,5.10
2023-02-12T05:39:38.648Z,5.10
2023-02-12T05:42:08.294Z,5.10
2023-02-12T05:44:36.310Z,5.10
2023-02-12T05:47:04.316Z,5.10
2023-02-12T05:49:32.228Z,5.10
2023-02-12T05:52:00.118Z,5.10
2023-02-12T05:54:31.428Z,5.10
2023-02-12T05:56:59.374Z,5.10
2023-02-12T05:59:28.598Z,5.10
2023-02-12T06:01:56.538Z,5.10
2023-02-12T06:04:27.912Z,5.10
2023-02-12T06:06:56.852Z,5.10
2023-02-12T06:09:25.583Z,5.10
2023-02-12T06:11:53.752Z,5.10
2023-02-12T06:14:22.520Z,5.10
2023-02-12T06:16:52.722Z,5.10
2023-02-12T06:19:22.007Z,5.10
2023-02-12T06:21:49.897Z,5.10
2023-02-12T06:24:18.795Z,5.10
2023-02-12T06:26:46.837Z,5.10
2023-02-12T06:29:14.727Z,5.10
2023-02-12T06:31:43.197Z,5.10
2023-02-12T06:34:14.169Z,5.10
2023-02-12T06:36:44.907Z,5.10
2023-02-12T06:39:13.823Z,5.10
2023-02-12T06:41:42.454Z,5.10
2023-02-12T06:44:13.609Z,5.10
2023-02-12T06:46:41.664Z,5.10
2023-02-12T06:49:14.223Z,5.10
2023-02-12T06:51:42.553Z,5.10
2023-02-12T06:54:14.894Z,5.10
2023-02-12T06:56:42.874Z,5.10
2023-02-12T06:59:15.078Z,5.20
2023-02-12T07:01:43.113Z,5.20
2023-02-12T07:04:13.698Z,5.20
2023-02-12T07:06:41.952Z,5.20
2023-02-12T07:09:09.873Z,5.20
2023-02-12T07:11:38.887Z,5.20
2023-02-12T07:14:07.044Z,5.20
2023-02-12T07:16:35.146Z,5.20
2023-02-12T07:19:03.091Z,5.20
2023-02-12T07:21:32.899Z,5.20
2023-02-12T07:24:01.122Z,5.30
2023-02-12T07:26:29.384Z,5.30
2023-02-12T07:28:58.166Z,5.30
2023-02-12T07:31:26.538Z,5.40
2023-02-12T07:33:55.576Z,5.40
2023-02-12T07:36:24.369Z,5.40
2023-02-12T07:38:54.630Z,5.40
2023-02-12T07:41:24.676Z,5.40
2023-02-12T07:43:56.206Z,5.40
2023-02-12T07:46:29.708Z,5.50
2023-02-12T07:48:58.770Z,5.40
2023-02-12T07:51:27.250Z,5.50
2023-02-12T07:53:56.611Z,5.40
2023-02-12T07:56:25.792Z,5.50
2023-02-12T07:58:54.591Z,5.50
2023-02-12T08:01:24.197Z,5.50
2023-02-12T08:03:52.763Z,5.50
2023-02-12T08:06:23.024Z,5.50
2023-02-12T08:08:52.627Z,5.50
2023-02-12T08:11:22.040Z,5.40
2023-02-12T08:13:51.212Z,5.50
2023-02-12T08:16:21.584Z,5.50
2023-02-12T08:18:51.412Z,5.40
2023-02-12T08:21:21.419Z,5.50
2023-02-12T08:23:50.719Z,5.50
2023-02-12T08:26:22.188Z,5.50
2023-02-12T08:28:53.478Z,5.50
2023-02-12T08:31:23.792Z,5.50
2023-02-12T08:33:53.321Z,5.50
2023-02-12T08:36:23.385Z,5.50
2023-02-12T08:38:51.669Z,5.50
2023-02-12T08:41:22.738Z,5.50
2023-02-12T08:43:52.541Z,5.50
2023-02-12T08:46:22.359Z,5.50
2023-02-12T08:48:52.753Z,5.50
2023-02-12T08:51:23.792Z,5.50
2023-02-12T08:53:54.172Z,5.50
2023-02-12T08:56:24.631Z,5.50
2023-02-12T08:58:52.575Z,5.50
2023-02-12T09:01:23.655Z,5.40
2023-02-12T09:03:51.920Z,5.40
2023-02-12T09:06:22.172Z,5.50
2023-02-12T09:08:50.522Z,5.50
2023-02-12T09:11:20.608Z,5.50
2023-02-12T09:13:49.785Z,5.60
2023-02-12T09:16:17.729Z,5.60
2023-02-12T09:18:46.095Z,5.70
2023-02-12T09:21:16.677Z,5.70
2023-02-12T09:23:45.170Z,5.80
2023-02-12T09:26:16.540Z,5.80
2023-02-12T09:28:44.870Z,5.80
2023-02-12T09:31:15.933Z,5.90
2023-02-12T09:33:45.313Z,5.90
2023-02-12T09:36:15.943Z,5.90
2023-02-12T09:38:45.070Z,5.90
2023-02-12T09:41:59.836Z,5.90
2023-02-12T09:44:33.502Z,6.00
2023-02-12T09:47:06.240Z,6.10
2023-02-12T09:49:49.377Z,6.10
2023-02-12T09:52:20.039Z,6.10
2023-02-12T09:54:49.808Z,6.20
2023-02-12T09:57:21.989Z,6.20
2023-02-12T09:59:55.430Z,6.20
2023-02-12T10:02:25.228Z,6.20
2023-02-12T10:05:00.984Z,6.20
2023-02-12T10:07:54.107Z,6.30
2023-02-12T10:10:35.074Z,6.30
2023-02-12T10:13:06.416Z,6.30
2023-02-12T10:15:43.813Z,6.40
2023-02-12T10:18:40.847Z,6.40
2023-02-12T10:21:22.803Z,6.40
2023-02-12T10:24:06.300Z,6.50
2023-02-12T10:26:38.934Z,6.50
2023-02-12T10:29:15.901Z,6.50
2023-02-12T10:31:46.592Z,6.60
2023-02-12T10:34:19.530Z,6.60
2023-02-12T10:36:49.820Z,6.60
2023-02-12T10:39:22.717Z,6.70
2023-02-12T10:41:56.662Z,6.70
2023-02-12T10:44:24.632Z,6.70
2023-02-12T10:46:52.655Z,6.80
2023-02-12T10:49:22.507Z,6.80
2023-02-12T10:52:01.896Z,6.80
2023-02-12T10:54:35.762Z,6.80
2023-02-12T10:57:14.765Z,6.90
2023-02-12T10:59:44.068Z,6.90
2023-02-12T11:02:23.008Z,7.00
2023-02-12T11:04:53.082Z,7.00
2023-02-12T11:07:22.091Z,7.00
2023-02-12T11:09:52.259Z,7.00
2023-02-12T11:12:35.723Z,7.00
2023-02-12T11:15:14.314Z,7.00
2023-02-12T11:17:44.651Z,7.00
2023-02-12T11:20:26.193Z,7.00
2023-02-12T11:22:56.568Z,6.90
2023-02-12T11:25:26.673Z,6.90
2023-02-12T11:28:07.107Z,6.90
2023-02-12T11:30:35.326Z,6.90
2023-02-12T11:33:17.756Z,6.80
2023-02-12T11:35:59.371Z,6.90
2023-02-12T11:38:31.959Z,6.90
2023-02-12T11:41:04.557Z,6.90
2023-02-12T11:43:37.185Z,6.90
2023-02-12T11:46:07.065Z,6.90
2023-02-12T11:48:38.901Z,6.80
2023-02-12T11:51:20.770Z,6.90
2023-02-12T11:53:52.277Z,6.90
2023-02-12T11:56:20.963Z,6.80
2023-02-12T11:58:49.474Z,6.80
2023-02-12T12:01:21.593Z,6.90
2023-02-12T12:03:56.710Z,7.00
2023-02-12T12:06:32.171Z,7.00
2023-02-12T12:09:06.214Z,7.10
2023-02-12T12:11:48.003Z,7.10
2023-02-12T12:14:23.356Z,7.20
2023-02-12T12:17:14.236Z,7.20
2023-02-12T12:19:55.781Z,7.20
2023-02-12T12:22:45.071Z,7.20
2023-02-12T12:25:21.377Z,7.20
2023-02-12T12:28:05.778Z,7.20
2023-02-12T12:30:52.713Z,7.20
2023-02-12T12:33:27.170Z,7.20
2023-02-12T12:36:09.672Z,7.20
2023-02-12T12:38:47.990Z,7.20
2023-02-12T12:41:28.029Z,7.20
2023-02-12T12:44:10.610Z,7.30
2023-02-12T12:47:01.544Z,7.30
2023-02-12T12:49:57.285Z,7.30
2023-02-12T12:52:39.575Z,7.30
2023-02-12T12:55:44.687Z,7.30
2023-02-12T12:58:19.968Z,7.30
2023-02-12T13:01:06.377Z,7.30
2023-02-12T13:03:52.795Z,7.30
2023-02-12T13:06:41.406Z,7.40
2023-02-12T13:09:24.703Z,7.40
2023-02-12T13:12:09.673Z,7.40
2023-02-12T13:14:44.378Z,7.30
2023-02-12T13:17:19.406Z,7.30
2023-02-12T13:19:59.390Z,7.40
2023-02-12T13:22:36.068Z,7.40
2023-02-12T13:25:17.144Z,7.40
2023-02-12T13:27:48.922Z,7.30
2023-02-12T13:30:22.576Z,7.30
2023-02-12T13:33:02.456Z,7.30
2023-02-12T13:35:34.046Z,7.30
2023-02-12T13:38:04.596Z,7.30
2023-02-12T13:40:32.544Z,7.20
2023-02-12T13:43:12.983Z,7.20
2023-02-12T13:45:49.303Z,7.20
2023-02-12T13:48:36.540Z,7.20
2023-02-12T13:51:12.413Z,7.10
2023-02-12T13:53:52.530Z,7.20
2023-02-12T13:56:33.947Z,7.10
2023-02-12T13:59:03.274Z,7.10
2023-02-12T14:01:45.806Z,7.10
2023-02-12T14:04:29.505Z,7.10
2023-02-12T14:07:01.391Z,7.10
2023-02-12T14:09:37.815Z,7.10
2023-02-12T14:12:08.407Z,7.10
2023-02-12T14:14:40.448Z,7.10
2023-02-12T14:17:42.930Z,7.10
2023-02-12T14:20:24.631Z,7.10
2023-02-12T14:23:27.466Z,7.10
2023-02-12T14:25:59.948Z,7.10
2023-02-12T14:28:34.502Z,7.00
2023-02-12T14:31:29.854Z,7.00
2023-02-12T14:34:45.640Z,7.00
2023-02-12T14:37:33.154Z,6.90
2023-02-12T14:40:42.573Z,6.90
2023-02-12T14:43:27.334Z,6.90
2023-02-12T14:45:56.518Z,6.80
2023-02-12T14:48:53.228Z,6.80
2023-02-12T14:51:28.592Z,6.80
2023-02-12T14:53:57.779Z,6.80
2023-02-12T14:56:26.319Z,6.80
2023-02-12T14:58:57.101Z,6.80
2023-02-12T15:01:33.009Z,6.80
2023-02-12T15:04:12.294Z,6.80
2023-02-12T15:06:49.618Z,6.80
2023-02-12T15:09:22.671Z,6.80
2023-02-12T15:11:55.188Z,6.80
2023-02-12T15:14:25.712Z,6.80
2023-02-12T15:17:00.062Z,6.70
2023-02-12T15:19:40.630Z,6.70
2023-02-12T15:22:31.365Z,6.70
2023-02-12T15:25:18.166Z,6.70
2023-02-12T15:27:50.425Z,6.70
2023-02-12T15:30:26.091Z,6.70
2023-02-12T15:32:56.578Z,6.70
2023-02-12T15:35:29.126Z,6.60
2023-02-12T15:38:00.123Z,6.60
2023-02-12T15:40:28.937Z,6.60
2023-02-12T15:42:59.128Z,6.60
2023-02-12T15:45:29.103Z,6.60
2023-02-12T15:48:02.441Z,6.60
2023-02-12T15:50:32.841Z,6.50
2023-02-12T15:53:00.821Z,6.50
2023-02-12T15:55:30.528Z,6.40
2023-02-12T15:58:00.342Z,6.40
2023-02-12T16:00:32.953Z,6.30
2023-02-12T16:03:00.834Z,6.30
2023-02-12T16:05:29.026Z,6.30
2023-02-12T16:07:59.875Z,6.20
2023-02-12T16:10:27.870Z,6.20
2023-02-12T16:12:56.488Z,6.10
2023-02-12T16:15:27.193Z,6.10
2023-02-12T16:17:56.421Z,6.10
2023-02-12T16:20:27.150Z,6.00
2023-02-12T16:22:56.538Z,6.00
2023-02-12T16:25:27.781Z,6.00
2023-02-12T16:28:00.222Z,5.90
2023-02-12T16:30:30.494Z,5.90
2023-02-12T16:32:59.199Z,5.90
2023-02-12T16:35:30.143Z,5.80
2023-02-12T16:38:04.608Z,5.80
2023-02-12T16:40:36.808Z,5.80
2023-02-12T16:43:21.881Z,5.80
2023-02-12T16:45:50.035Z,5.80
2023-02-12T16:48:25.089Z,5.70
2023-02-12T16:50:55.460Z,5.70
2023-02-12T16:53:43.733Z,5.70
2023-02-12T16:56:18.083Z,5.70
2023-02-12T16:58:48.278Z,5.60
2023-02-12T17:01:19.342Z,5.60
2023-02-12T17:03:50.424Z,5.60
2023-02-12T17:06:21.310Z,5.60
2023-02-12T17:08:49.431Z,5.60
2023-02-12T17:11:19.378Z,5.50
2023-02-12T17:13:49.196Z,5.50
2023-02-12T17:16:29.775Z,5.50
2023-02-12T17:18:59.313Z,5.50
2023-02-12T17:21:29.721Z,5.50
2023-02-12T17:23:57.652Z,5.40
2023-02-12T17:26:27.164Z,5.40
2023-02-12T17:28:55.030Z,5.40
2023-02-12T17:31:23.867Z,5.40
2023-02-12T17:33:51.948Z,5.40
2023-02-12T17:36:19.873Z,5.40
2023-02-12T17:38:47.771Z,5.30
2023-02-12T17:41:15.686Z,5.30
2023-02-12T17:43:46.227Z,5.30
2023-02-12T17:46:17.746Z,5.30
2023-02-12T17:48:45.627Z,5.30
2023-02-12T17:51:13.793Z,5.30
2023-02-12T17:53:42.828Z,5.30
2023-02-12T17:56:12.075Z,5.30
2023-02-12T17:58:40.398Z,5.30
2023-02-12T18:01:11.647Z,5.30
2023-02-12T18:03:39.839Z,5.30
2023-02-12T18:06:09.079Z,5.20
2023-02-12T18:08:37.026Z,5.20
2023-02-12T18:11:06.562Z,5.20
2023-02-12T18:13:34.720Z,5.20
2023-02-12T18:16:02.684Z,5.10
2023-02-12T18:18:32.063Z,5.10
2023-02-12T18:20:59.946Z,5.10
2023-02-12T18:23:27.797Z,5.00
2023-02-12T18:25:55.657Z,5.00
2023-02-12T18:28:23.636Z,5.00
2023-02-12T18:30:57.047Z,5.00
2023-02-12T18:33:25.198Z,5.00
2023-02-12T18:36:03.272Z,5.00
2023-02-12T18:38:33.460Z,5.00
2023-02-12T18:41:01.363Z,5.00
2023-02-12T18:43:29.296Z,5.00
2023-02-12T18:45:57.191Z,5.00
2023-02-12T18:48:25.162Z,4.90
2023-02-12T18:50:55.274Z,4.90
2023-02-12T18:53:24.663Z,4.90
2023-02-12T18:55:52.808Z,4.90
2023-02-12T18:58:20.778Z,4.90
2023-02-12T19:00:48.897Z,4.90
2023-02-12T19:03:17.071Z,4.80
2023-02-12T19:05:45.105Z,4.80
2023-02-12T19:08:13.153Z,4.80
2023-02-12T19:10:43.198Z,4.80
2023-02-12T19:13:11.454Z,4.80
2023-02-12T19:15:40.392Z,4.70
2023-02-12T19:18:08.442Z,4.70
2023-02-12T19:20:36.326Z,4.70
2023-02-12T19:23:04.275Z,4.70
2023-02-12T19:25:32.129Z,4.70
2023-02-12T19:28:01.347Z,4.70
2023-02-12T19:30:29.210Z,4.70
2023-02-12T19:32:57.103Z,4.70
2023-02-12T19:35:25.004Z,4.70
2023-02-12T19:37:52.876Z,4.70
2023-02-12T19:40:21.415Z,4.60
2023-02-12T19:42:49.331Z,4.60
2023-02-12T19:45:18.758Z,4.60
2023-02-12T19:47:47.757Z,4.60
2023-02-12T19:50:15.603Z,4.60
2023-02-12T19:52:47.108Z,4.60
2023-02-12T19:55:15.167Z,4.60
2023-02-12T19:57:43.140Z,4.60
2023-02-12T20:00:12.761Z,4.60
2023-02-12T20:02:43.945Z,4.60
2023-02-12T20:05:11.921Z,4.60
2023-02-12T20:07:39.896Z,4.50
2023-02-12T20:10:08.778Z,4.50
2023-02-12T20:12:40.072Z,4.50
2023-02-12T20:15:08.633Z,4.50
2023-02-12T20:17:36.599Z,4.50
2023-02-12T20:20:07.261Z,4.50
2023-02-12T20:22:36.668Z,4.50
2023-02-12T20:25:06.010Z,4.50
2023-02-12T20:27:35.006Z,4.50
2023-02-12T20:30:02.835Z,4.50
2023-02-12T20:32:30.691Z,4.40
2023-02-12T20:34:58.508Z,4.40
2023-02-12T20:37:27.795Z,4.40
2023-02-12T20:39:55.806Z,4.40
2023-02-12T20:42:23.701Z,4.40
2023-02-12T20:44:51.534Z,4.40
2023-02-12T20:47:23.080Z,4.40
2023-02-12T20:49:50.923Z,4.40
2023-02-12T20:52:19.051Z,4.40
2023-02-12T20:54:48.317Z,4.40
2023-02-12T20:57:16.810Z,4.40
2023-02-12T20:59:44.707Z,4.40
2023-02-12T21:02:13.106Z,4.30
2023-02-12T21:04:40.976Z,4.30
2023-02-12T21:07:08.861Z,4.30
2023-02-12T21:09:36.886Z,4.30
2023-02-12T21:12:06.469Z,4.30
2023-02-12T21:14:34.384Z,4.30
2023-02-12T21:17:03.315Z,4.30
2023-02-12T21:19:31.252Z,4.30
2023-02-12T21:21:59.255Z,4.30
2023-02-12T21:24:27.661Z,4.30
2023-02-12T21:26:56.404Z,4.40
2023-02-12T21:29:27.403Z,4.40
2023-02-12T21:31:55.815Z,4.30
2023-02-12T21:34:24.576Z,4.30
2023-02-12T21:36:55.276Z,4.30
2023-02-12T21:39:26.158Z,4.30
2023-02-12T21:41:55.782Z,4.30
2023-02-12T21:44:26.442Z,4.30
2023-02-12T21:46:54.491Z,4.30
2023-02-12T21:49:28.791Z,4.30
2023-02-12T21:52:01.886Z,4.30
2023-02-12T21:54:30.302Z,4.30
2023-02-12T21:56:59.374Z,4.30
2023-02-12T21:59:31.736Z,4.30
2023-02-12T22:02:00.643Z,4.40
2023-02-12T22:04:29.132Z,4.40
2023-02-12T22:06:58.004Z,4.40
2023-02-12T22:09:25.881Z,4.40
2023-02-12T22:11:54.100Z,4.40
2023-02-12T22:14:22.883Z,4.40
2023-02-12T22:16:52.580Z,4.40
2023-02-12T22:19:20.755Z,4.40
2023-02-12T22:21:51.545Z,4.40
2023-02-12T22:24:20.102Z,4.40
2023-02-12T22:26:48.383Z,4.30
2023-02-12T22:29:17.354Z,4.30
2023-02-12T22:31:46.861Z,4.30
2023-02-12T22:34:18.581Z,4.40
2023-02-12T22:36:47.351Z,4.40
2023-02-12T22:39:17.428Z,4.40
2023-02-12T22:41:45.448Z,4.40
2023-02-12T22:44:14.399Z,4.40
2023-02-12T22:46:42.981Z,4.40
2023-02-12T22:49:10.974Z,4.50
2023-02-12T22:51:40.570Z,4.50
2023-02-12T22:54:10.360Z,4.50
2023-02-12T22:56:38.329Z,4.50
2023-02-12T22:59:06.192Z,4.50
2023-02-12T23:01:34.547Z,4.50
2023-02-12T23:04:02.527Z,4.60
2023-02-12T23:06:31.923Z,4.60
2023-02-12T23:09:02.940Z,4.60
2023-02-12T23:11:32.925Z,4.60
2023-02-12T23:14:02.268Z,4.60
2023-02-12T23:16:30.366Z,4.60
2023-02-12T23:18:59.710Z,4.60
2023-02-12T23:21:29.259Z,4.60
2023-02-12T23:23:58.999Z,4.60
2023-02-12T23:26:28.614Z,4.60
2023-02-12T23:28:57.374Z,4.60
2023-02-12T23:31:25.734Z,4.60
2023-02-12T23:33:53.924Z,4.50
2023-02-12T23:36:22.230Z,4.50
2023-02-12T23:38:50.094Z,4.30
2023-02-12T23:41:18.048Z,4.40
2023-02-12T23:43:47.217Z,4.40
2023-02-12T23:46:15.189Z,4.40
2023-02-12T23:48:44.477Z,4.40
2023-02-12T23:51:12.336Z,4.40
2023-02-12T23:53:40.198Z,4.40
2023-02-12T23:56:08.661Z,4.30
2023-02-12T23:58:36.564Z,4.30
